sensor_id;sensor_type;location;lat;lon;timestamp;temperature;humidity
23497;DHT22;11925;48.122;11.560;2022-09-23T00:02:13;13.20;92.40
23497;DHT22;11925;48.122;11.560;2022-09-23T00:04:42;13.20;92.50
23497;DHT22;11925;48.122;11.560;2022-09-23T00:07:12;13.20;92.50
23497;DHT22;11925;48.122;11.560;2022-09-23T00:09:40;13.20;92.50
23497;DHT22;11925;48.122;11.560;2022-09-23T00:12:09;13.10;92.90
23497;DHT22;11925;48.122;11.560;2022-09-23T00:14:38;13.10;92.50
23497;DHT22;11925;48.122;11.560;2022-09-23T00:17:07;13.10;92.50
23497;DHT22;11925;48.122;11.560;2022-09-23T00:19:37;13.10;92.50
23497;DHT22;11925;48.122;11.560;2022-09-23T00:22:06;13.00;92.40
23497;DHT22;11925;48.122;11.560;2022-09-23T00:24:37;13.10;92.50
23497;DHT22;11925;48.122;11.560;2022-09-23T00:27:06;13.10;92.50
23497;DHT22;11925;48.122;11.560;2022-09-23T00:29:34;13.00;92.50
23497;DHT22;11925;48.122;11.560;2022-09-23T00:32:03;13.00;92.40
23497;DHT22;11925;48.122;11.560;2022-09-23T00:34:31;13.10;92.40
23497;DHT22;11925;48.122;11.560;2022-09-23T00:37:00;13.00;92.30
23497;DHT22;11925;48.122;11.560;2022-09-23T00:39:28;13.00;92.30
23497;DHT22;11925;48.122;11.560;2022-09-23T00:41:58;13.00;92.30
23497;DHT22;11925;48.122;11.560;2022-09-23T00:44:45;13.00;92.30
23497;DHT22;11925;48.122;11.560;2022-09-23T00:47:18;13.00;92.20
23497;DHT22;11925;48.122;11.560;2022-09-23T00:49:53;13.00;92.20
23497;DHT22;11925;48.122;11.560;2022-09-23T00:52:23;13.00;92.20
23497;DHT22;11925;48.122;11.560;2022-09-23T00:54:53;13.00;92.20
23497;DHT22;11925;48.122;11.560;2022-09-23T00:57:24;12.90;92.20
23497;DHT22;11925;48.122;11.560;2022-09-23T00:59:53;13.00;92.20
23497;DHT22;11925;48.122;11.560;2022-09-23T01:02:22;12.90;92.10
23497;DHT22;11925;48.122;11.560;2022-09-23T01:04:51;12.90;92.00
23497;DHT22;11925;48.122;11.560;2022-09-23T01:07:19;12.90;92.00
23497;DHT22;11925;48.122;11.560;2022-09-23T01:09:48;12.90;92.00
23497;DHT22;11925;48.122;11.560;2022-09-23T01:12:33;12.90;91.90
23497;DHT22;11925;48.122;11.560;2022-09-23T01:15:10;12.90;91.90
23497;DHT22;11925;48.122;11.560;2022-09-23T01:17:48;12.90;91.80
23497;DHT22;11925;48.122;11.560;2022-09-23T01:20:35;12.80;91.80
23497;DHT22;11925;48.122;11.560;2022-09-23T01:23:20;12.80;91.80
23497;DHT22;11925;48.122;11.560;2022-09-23T01:26:12;12.80;91.70
23497;DHT22;11925;48.122;11.560;2022-09-23T01:29:10;12.80;91.70
23497;DHT22;11925;48.122;11.560;2022-09-23T01:31:50;12.80;91.70
23497;DHT22;11925;48.122;11.560;2022-09-23T01:34:25;12.80;91.60
23497;DHT22;11925;48.122;11.560;2022-09-23T01:37:04;12.80;91.60
23497;DHT22;11925;48.122;11.560;2022-09-23T01:39:36;12.80;91.60
23497;DHT22;11925;48.122;11.560;2022-09-23T01:42:12;12.70;91.60
23497;DHT22;11925;48.122;11.560;2022-09-23T01:44:47;12.70;91.60
23497;DHT22;11925;48.122;11.560;2022-09-23T01:47:24;12.70;91.60
23497;DHT22;11925;48.122;11.560;2022-09-23T01:49:58;12.60;91.50
23497;DHT22;11925;48.122;11.560;2022-09-23T01:52:30;12.70;91.60
23497;DHT22;11925;48.122;11.560;2022-09-23T01:55:05;12.70;91.60
23497;DHT22;11925;48.122;11.560;2022-09-23T01:57:39;12.70;91.50
23497;DHT22;11925;48.122;11.560;2022-09-23T02:00:13;12.70;91.50
23497;DHT22;11925;48.122;11.560;2022-09-23T02:02:47;12.70;91.40
23497;DHT22;11925;48.122;11.560;2022-09-23T02:05:23;12.70;91.40
23497;DHT22;11925;48.122;11.560;2022-09-23T02:07:57;12.70;91.40
23497;DHT22;11925;48.122;11.560;2022-09-23T02:10:31;12.70;91.30
23497;DHT22;11925;48.122;11.560;2022-09-23T02:13:06;12.70;91.30
23497;DHT22;11925;48.122;11.560;2022-09-23T02:15:39;12.60;91.30
23497;DHT22;11925;48.122;11.560;2022-09-23T02:18:12;12.60;91.30
23497;DHT22;11925;48.122;11.560;2022-09-23T02:20:42;12.60;91.30
23497;DHT22;11925;48.122;11.560;2022-09-23T02:23:12;12.50;91.20
23497;DHT22;11925;48.122;11.560;2022-09-23T02:25:48;12.50;91.20
23497;DHT22;11925;48.122;11.560;2022-09-23T02:28:24;12.50;91.20
23497;DHT22;11925;48.122;11.560;2022-09-23T02:31:04;12.60;91.30
23497;DHT22;11925;48.122;11.560;2022-09-23T02:33:38;12.60;91.20
23497;DHT22;11925;48.122;11.560;2022-09-23T02:36:13;12.60;91.10
23497;DHT22;11925;48.122;11.560;2022-09-23T02:38:45;12.60;91.10
23497;DHT22;11925;48.122;11.560;2022-09-23T02:41:23;12.60;91.10
23497;DHT22;11925;48.122;11.560;2022-09-23T02:43:56;12.60;91.10
23497;DHT22;11925;48.122;11.560;2022-09-23T02:46:28;12.60;91.10
23497;DHT22;11925;48.122;11.560;2022-09-23T02:49:02;12.50;91.10
23497;DHT22;11925;48.122;11.560;2022-09-23T02:51:32;12.50;91.10
23497;DHT22;11925;48.122;11.560;2022-09-23T02:54:04;12.60;91.10
23497;DHT22;11925;48.122;11.560;2022-09-23T02:56:34;12.50;90.90
23497;DHT22;11925;48.122;11.560;2022-09-23T02:59:03;12.50;91.00
23497;DHT22;11925;48.122;11.560;2022-09-23T03:01:39;12.50;90.90
23497;DHT22;11925;48.122;11.560;2022-09-23T03:04:18;12.40;90.80
23497;DHT22;11925;48.122;11.560;2022-09-23T03:06:55;12.50;91.20
23497;DHT22;11925;48.122;11.560;2022-09-23T03:09:31;12.50;90.80
23497;DHT22;11925;48.122;11.560;2022-09-23T03:12:09;12.50;90.70
23497;DHT22;11925;48.122;11.560;2022-09-23T03:14:48;12.50;90.60
23497;DHT22;11925;48.122;11.560;2022-09-23T03:17:24;12.40;90.50
23497;DHT22;11925;48.122;11.560;2022-09-23T03:19:59;12.40;90.60
23497;DHT22;11925;48.122;11.560;2022-09-23T03:22:30;12.50;90.60
23497;DHT22;11925;48.122;11.560;2022-09-23T03:25:04;12.50;90.40
23497;DHT22;11925;48.122;11.560;2022-09-23T03:27:35;12.50;90.40
23497;DHT22;11925;48.122;11.560;2022-09-23T03:30:06;12.50;90.30
23497;DHT22;11925;48.122;11.560;2022-09-23T03:32:36;12.50;90.20
23497;DHT22;11925;48.122;11.560;2022-09-23T03:35:07;12.40;90.10
23497;DHT22;11925;48.122;11.560;2022-09-23T03:37:40;12.40;90.00
23497;DHT22;11925;48.122;11.560;2022-09-23T03:40:12;12.40;90.00
23497;DHT22;11925;48.122;11.560;2022-09-23T03:42:42;12.40;89.70
23497;DHT22;11925;48.122;11.560;2022-09-23T03:45:12;12.40;89.50
23497;DHT22;11925;48.122;11.560;2022-09-23T03:47:45;12.40;89.40
23497;DHT22;11925;48.122;11.560;2022-09-23T03:50:15;12.40;89.30
23497;DHT22;11925;48.122;11.560;2022-09-23T03:52:44;12.40;89.10
23497;DHT22;11925;48.122;11.560;2022-09-23T03:55:14;12.40;89.00
23497;DHT22;11925;48.122;11.560;2022-09-23T03:57:43;12.40;89.00
23497;DHT22;11925;48.122;11.560;2022-09-23T04:00:13;12.40;88.80
23497;DHT22;11925;48.122;11.560;2022-09-23T04:02:42;12.40;88.70
23497;DHT22;11925;48.122;11.560;2022-09-23T04:05:11;12.40;88.70
23497;DHT22;11925;48.122;11.560;2022-09-23T04:07:41;12.40;88.60
23497;DHT22;11925;48.122;11.560;2022-09-23T04:10:10;12.40;88.40
23497;DHT22;11925;48.122;11.560;2022-09-23T04:12:38;12.40;88.40
23497;DHT22;11925;48.122;11.560;2022-09-23T04:15:07;12.40;88.40
23497;DHT22;11925;48.122;11.560;2022-09-23T04:17:36;12.30;88.10
23497;DHT22;11925;48.122;11.560;2022-09-23T04:20:05;12.30;88.30
23497;DHT22;11925;48.122;11.560;2022-09-23T04:22:34;12.30;88.30
23497;DHT22;11925;48.122;11.560;2022-09-23T04:25:06;12.30;88.10
23497;DHT22;11925;48.122;11.560;2022-09-23T04:27:35;12.30;88.30
23497;DHT22;11925;48.122;11.560;2022-09-23T04:30:04;12.20;88.10
23497;DHT22;11925;48.122;11.560;2022-09-23T04:32:33;12.20;88.20
23497;DHT22;11925;48.122;11.560;2022-09-23T04:35:02;12.30;88.30
23497;DHT22;11925;48.122;11.560;2022-09-23T04:37:31;12.30;88.00
23497;DHT22;11925;48.122;11.560;2022-09-23T04:39:59;12.30;87.90
23497;DHT22;11925;48.122;11.560;2022-09-23T04:42:30;12.30;87.90
23497;DHT22;11925;48.122;11.560;2022-09-23T04:44:58;12.20;87.90
23497;DHT22;11925;48.122;11.560;2022-09-23T04:47:27;12.30;87.90
23497;DHT22;11925;48.122;11.560;2022-09-23T04:49:55;12.30;87.90
23497;DHT22;11925;48.122;11.560;2022-09-23T04:52:26;12.20;87.70
23497;DHT22;11925;48.122;11.560;2022-09-23T04:54:54;12.20;87.70
23497;DHT22;11925;48.122;11.560;2022-09-23T04:57:23;12.20;87.70
23497;DHT22;11925;48.122;11.560;2022-09-23T04:59:52;12.20;87.80
23497;DHT22;11925;48.122;11.560;2022-09-23T05:02:22;12.20;87.90
23497;DHT22;11925;48.122;11.560;2022-09-23T05:04:51;12.20;87.80
23497;DHT22;11925;48.122;11.560;2022-09-23T05:07:19;12.20;87.90
23497;DHT22;11925;48.122;11.560;2022-09-23T05:09:48;12.20;87.90
23497;DHT22;11925;48.122;11.560;2022-09-23T05:12:16;12.20;88.00
23497;DHT22;11925;48.122;11.560;2022-09-23T05:14:45;12.20;88.10
23497;DHT22;11925;48.122;11.560;2022-09-23T05:17:14;12.20;88.10
23497;DHT22;11925;48.122;11.560;2022-09-23T05:19:43;12.20;88.10
23497;DHT22;11925;48.122;11.560;2022-09-23T05:22:11;12.20;88.20
23497;DHT22;11925;48.122;11.560;2022-09-23T05:24:40;12.20;88.10
23497;DHT22;11925;48.122;11.560;2022-09-23T05:27:08;12.20;88.20
23497;DHT22;11925;48.122;11.560;2022-09-23T05:29:36;12.20;88.10
23497;DHT22;11925;48.122;11.560;2022-09-23T05:32:05;12.20;88.30
23497;DHT22;11925;48.122;11.560;2022-09-23T05:34:36;12.20;88.30
23497;DHT22;11925;48.122;11.560;2022-09-23T05:37:04;12.20;88.40
23497;DHT22;11925;48.122;11.560;2022-09-23T05:39:33;12.20;88.40
23497;DHT22;11925;48.122;11.560;2022-09-23T05:42:01;12.20;88.40
23497;DHT22;11925;48.122;11.560;2022-09-23T05:44:30;12.20;88.40
23497;DHT22;11925;48.122;11.560;2022-09-23T05:46:58;12.20;88.60
23497;DHT22;11925;48.122;11.560;2022-09-23T05:49:26;12.20;88.70
23497;DHT22;11925;48.122;11.560;2022-09-23T05:52:16;12.20;88.80
23497;DHT22;11925;48.122;11.560;2022-09-23T05:54:44;12.20;88.80
23497;DHT22;11925;48.122;11.560;2022-09-23T05:57:13;12.20;89.10
23497;DHT22;11925;48.122;11.560;2022-09-23T05:59:41;12.20;89.00
23497;DHT22;11925;48.122;11.560;2022-09-23T06:02:13;12.30;89.10
23497;DHT22;11925;48.122;11.560;2022-09-23T06:04:42;12.30;89.30
23497;DHT22;11925;48.122;11.560;2022-09-23T06:07:11;12.30;89.50
23497;DHT22;11925;48.122;11.560;2022-09-23T06:09:41;12.30;89.70
23497;DHT22;11925;48.122;11.560;2022-09-23T06:12:10;12.30;89.80
23497;DHT22;11925;48.122;11.560;2022-09-23T06:14:40;12.30;90.00
23497;DHT22;11925;48.122;11.560;2022-09-23T06:17:08;12.30;89.90
23497;DHT22;11925;48.122;11.560;2022-09-23T06:19:36;12.30;89.90
23497;DHT22;11925;48.122;11.560;2022-09-23T06:22:05;12.30;90.00
23497;DHT22;11925;48.122;11.560;2022-09-23T06:24:33;12.30;90.00
23497;DHT22;11925;48.122;11.560;2022-09-23T06:27:03;12.40;90.10
23497;DHT22;11925;48.122;11.560;2022-09-23T06:29:32;12.40;90.10
23497;DHT22;11925;48.122;11.560;2022-09-23T06:32:01;12.40;90.30
23497;DHT22;11925;48.122;11.560;2022-09-23T06:34:31;12.40;90.30
23497;DHT22;11925;48.122;11.560;2022-09-23T06:37:16;12.40;90.40
23497;DHT22;11925;48.122;11.560;2022-09-23T06:39:46;12.50;90.40
23497;DHT22;11925;48.122;11.560;2022-09-23T06:42:16;12.50;90.50
23497;DHT22;11925;48.122;11.560;2022-09-23T06:44:45;12.50;90.60
23497;DHT22;11925;48.122;11.560;2022-09-23T06:47:13;12.50;90.70
23497;DHT22;11925;48.122;11.560;2022-09-23T06:49:42;12.50;90.70
23497;DHT22;11925;48.122;11.560;2022-09-23T06:52:10;12.60;90.80
23497;DHT22;11925;48.122;11.560;2022-09-23T06:54:38;12.70;90.90
23497;DHT22;11925;48.122;11.560;2022-09-23T06:57:07;12.80;90.80
23497;DHT22;11925;48.122;11.560;2022-09-23T06:59:37;12.80;91.20
23497;DHT22;11925;48.122;11.560;2022-09-23T07:02:06;12.80;91.30
23497;DHT22;11925;48.122;11.560;2022-09-23T07:04:34;12.80;91.20
23497;DHT22;11925;48.122;11.560;2022-09-23T07:07:03;12.80;91.20
23497;DHT22;11925;48.122;11.560;2022-09-23T07:09:31;12.70;91.20
23497;DHT22;11925;48.122;11.560;2022-09-23T07:12:00;12.70;91.30
23497;DHT22;11925;48.122;11.560;2022-09-23T07:14:28;12.80;91.40
23497;DHT22;11925;48.122;11.560;2022-09-23T07:16:58;12.90;91.70
23497;DHT22;11925;48.122;11.560;2022-09-23T07:19:26;13.00;91.40
23497;DHT22;11925;48.122;11.560;2022-09-23T07:21:55;13.00;91.60
23497;DHT22;11925;48.122;11.560;2022-09-23T07:24:24;13.10;91.60
23497;DHT22;11925;48.122;11.560;2022-09-23T07:26:52;13.00;92.10
23497;DHT22;11925;48.122;11.560;2022-09-23T07:29:21;13.00;92.10
23497;DHT22;11925;48.122;11.560;2022-09-23T07:31:49;13.10;92.30
23497;DHT22;11925;48.122;11.560;2022-09-23T07:34:21;13.10;92.40
23497;DHT22;11925;48.122;11.560;2022-09-23T07:36:50;13.20;92.20
23497;DHT22;11925;48.122;11.560;2022-09-23T07:39:18;13.20;92.40
23497;DHT22;11925;48.122;11.560;2022-09-23T07:41:46;13.20;92.20
23497;DHT22;11925;48.122;11.560;2022-09-23T07:44:15;13.30;92.90
23497;DHT22;11925;48.122;11.560;2022-09-23T07:46:44;13.30;92.70
23497;DHT22;11925;48.122;11.560;2022-09-23T07:49:12;13.20;93.00
23497;DHT22;11925;48.122;11.560;2022-09-23T07:51:42;13.30;93.00
23497;DHT22;11925;48.122;11.560;2022-09-23T07:54:14;13.30;92.90
23497;DHT22;11925;48.122;11.560;2022-09-23T07:56:44;13.30;92.80
23497;DHT22;11925;48.122;11.560;2022-09-23T07:59:16;13.40;93.10
23497;DHT22;11925;48.122;11.560;2022-09-23T08:01:47;13.40;93.60
23497;DHT22;11925;48.122;11.560;2022-09-23T08:04:17;13.40;93.50
23497;DHT22;11925;48.122;11.560;2022-09-23T08:06:49;13.40;93.90
23497;DHT22;11925;48.122;11.560;2022-09-23T08:09:21;13.40;94.00
23497;DHT22;11925;48.122;11.560;2022-09-23T08:11:50;13.40;93.90
23497;DHT22;11925;48.122;11.560;2022-09-23T08:14:18;13.50;94.20
23497;DHT22;11925;48.122;11.560;2022-09-23T08:16:49;13.50;94.20
23497;DHT22;11925;48.122;11.560;2022-09-23T08:19:18;13.50;94.60
23497;DHT22;11925;48.122;11.560;2022-09-23T08:21:49;13.50;94.50
23497;DHT22;11925;48.122;11.560;2022-09-23T08:24:20;13.50;94.40
23497;DHT22;11925;48.122;11.560;2022-09-23T08:26:51;13.50;94.20
23497;DHT22;11925;48.122;11.560;2022-09-23T08:29:21;13.50;94.30
23497;DHT22;11925;48.122;11.560;2022-09-23T08:31:51;13.60;94.50
23497;DHT22;11925;48.122;11.560;2022-09-23T08:34:21;13.60;94.50
23497;DHT22;11925;48.122;11.560;2022-09-23T08:36:51;13.60;94.50
23497;DHT22;11925;48.122;11.560;2022-09-23T08:39:20;13.60;94.70
23497;DHT22;11925;48.122;11.560;2022-09-23T08:42:12;13.60;94.80
23497;DHT22;11925;48.122;11.560;2022-09-23T08:44:48;13.60;94.90
23497;DHT22;11925;48.122;11.560;2022-09-23T08:47:21;13.60;94.70
23497;DHT22;11925;48.122;11.560;2022-09-23T08:49:56;13.70;94.70
23497;DHT22;11925;48.122;11.560;2022-09-23T08:52:32;13.60;94.90
23497;DHT22;11925;48.122;11.560;2022-09-23T08:55:02;13.60;94.90
23497;DHT22;11925;48.122;11.560;2022-09-23T08:57:40;13.70;94.90
23497;DHT22;11925;48.122;11.560;2022-09-23T09:00:14;13.70;95.00
23497;DHT22;11925;48.122;11.560;2022-09-23T09:02:47;13.70;95.20
23497;DHT22;11925;48.122;11.560;2022-09-23T09:05:21;13.70;95.00
23497;DHT22;11925;48.122;11.560;2022-09-23T09:07:56;13.70;95.10
23497;DHT22;11925;48.122;11.560;2022-09-23T09:10:32;13.80;95.00
23497;DHT22;11925;48.122;11.560;2022-09-23T09:13:05;13.80;95.10
23497;DHT22;11925;48.122;11.560;2022-09-23T09:15:39;13.80;95.70
23497;DHT22;11925;48.122;11.560;2022-09-23T09:18:14;13.80;95.70
23497;DHT22;11925;48.122;11.560;2022-09-23T09:20:53;13.80;95.60
23497;DHT22;11925;48.122;11.560;2022-09-23T09:23:30;13.80;95.80
23497;DHT22;11925;48.122;11.560;2022-09-23T09:26:01;13.80;95.60
23497;DHT22;11925;48.122;11.560;2022-09-23T09:28:36;13.80;95.80
23497;DHT22;11925;48.122;11.560;2022-09-23T09:31:21;13.80;95.90
23497;DHT22;11925;48.122;11.560;2022-09-23T09:33:55;13.80;95.90
23497;DHT22;11925;48.122;11.560;2022-09-23T09:36:34;13.80;95.80
23497;DHT22;11925;48.122;11.560;2022-09-23T09:39:05;13.80;95.90
23497;DHT22;11925;48.122;11.560;2022-09-23T09:41:39;13.80;96.10
23497;DHT22;11925;48.122;11.560;2022-09-23T09:44:20;13.80;96.10
23497;DHT22;11925;48.122;11.560;2022-09-23T09:46:51;13.80;96.00
23497;DHT22;11925;48.122;11.560;2022-09-23T09:49:25;13.90;96.20
23497;DHT22;11925;48.122;11.560;2022-09-23T09:52:12;13.90;96.30
23497;DHT22;11925;48.122;11.560;2022-09-23T09:54:44;13.80;96.40
23497;DHT22;11925;48.122;11.560;2022-09-23T09:57:20;13.80;96.40
23497;DHT22;11925;48.122;11.560;2022-09-23T09:59:51;13.90;96.50
23497;DHT22;11925;48.122;11.560;2022-09-23T10:02:24;13.90;96.50
23497;DHT22;11925;48.122;11.560;2022-09-23T10:04:57;13.90;96.60
23497;DHT22;11925;48.122;11.560;2022-09-23T10:07:28;13.90;96.70
23497;DHT22;11925;48.122;11.560;2022-09-23T10:10:15;13.90;96.80
23497;DHT22;11925;48.122;11.560;2022-09-23T10:13:13;13.90;96.70
23497;DHT22;11925;48.122;11.560;2022-09-23T10:15:43;13.90;96.60
23497;DHT22;11925;48.122;11.560;2022-09-23T10:18:28;13.90;96.60
23497;DHT22;11925;48.122;11.560;2022-09-23T10:21:06;14.00;96.70
23497;DHT22;11925;48.122;11.560;2022-09-23T10:23:39;14.00;96.70
23497;DHT22;11925;48.122;11.560;2022-09-23T10:26:10;14.00;96.60
23497;DHT22;11925;48.122;11.560;2022-09-23T10:28:45;14.00;96.80
23497;DHT22;11925;48.122;11.560;2022-09-23T10:31:15;14.00;96.70
23497;DHT22;11925;48.122;11.560;2022-09-23T10:33:50;14.00;96.60
23497;DHT22;11925;48.122;11.560;2022-09-23T10:36:20;14.00;96.60
23497;DHT22;11925;48.122;11.560;2022-09-23T10:38:52;14.00;96.60
23497;DHT22;11925;48.122;11.560;2022-09-23T10:41:49;14.00;96.50
23497;DHT22;11925;48.122;11.560;2022-09-23T10:44:51;14.00;96.50
23497;DHT22;11925;48.122;11.560;2022-09-23T10:47:46;14.00;96.60
23497;DHT22;11925;48.122;11.560;2022-09-23T10:50:29;14.00;96.70
23497;DHT22;11925;48.122;11.560;2022-09-23T10:53:11;14.10;96.50
23497;DHT22;11925;48.122;11.560;2022-09-23T10:55:57;14.10;96.60
23497;DHT22;11925;48.122;11.560;2022-09-23T11:01:38;14.10;96.50
23497;DHT22;11925;48.122;11.560;2022-09-23T11:07:21;14.10;95.90
23497;DHT22;11925;48.122;11.560;2022-09-23T11:10:16;14.10;95.90
23497;DHT22;11925;48.122;11.560;2022-09-23T11:13:14;14.10;96.70
23497;DHT22;11925;48.122;11.560;2022-09-23T11:15:53;14.10;96.50
23497;DHT22;11925;48.122;11.560;2022-09-23T11:21:48;14.10;96.30
23497;DHT22;11925;48.122;11.560;2022-09-23T11:24:47;14.20;96.30
23497;DHT22;11925;48.122;11.560;2022-09-23T11:27:34;14.10;96.60
23497;DHT22;11925;48.122;11.560;2022-09-23T11:30:10;14.20;96.50
23497;DHT22;11925;48.122;11.560;2022-09-23T11:33:03;14.20;96.10
23497;DHT22;11925;48.122;11.560;2022-09-23T11:35:43;14.20;96.10
23497;DHT22;11925;48.122;11.560;2022-09-23T11:38:18;14.20;96.10
23497;DHT22;11925;48.122;11.560;2022-09-23T11:40:55;14.20;96.10
23497;DHT22;11925;48.122;11.560;2022-09-23T11:43:26;14.10;96.00
23497;DHT22;11925;48.122;11.560;2022-09-23T11:46:01;14.20;96.10
23497;DHT22;11925;48.122;11.560;2022-09-23T11:48:37;14.20;96.00
23497;DHT22;11925;48.122;11.560;2022-09-23T11:51:12;14.30;95.80
23497;DHT22;11925;48.122;11.560;2022-09-23T11:53:45;14.30;95.60
23497;DHT22;11925;48.122;11.560;2022-09-23T11:56:17;14.30;95.60
23497;DHT22;11925;48.122;11.560;2022-09-23T11:59:08;14.30;95.60
23497;DHT22;11925;48.122;11.560;2022-09-23T12:01:41;14.30;95.50
23497;DHT22;11925;48.122;11.560;2022-09-23T12:04:18;14.30;95.40
23497;DHT22;11925;48.122;11.560;2022-09-23T12:06:51;14.30;95.40
23497;DHT22;11925;48.122;11.560;2022-09-23T12:09:26;14.30;96.20
23497;DHT22;11925;48.122;11.560;2022-09-23T12:12:21;14.30;95.90
23497;DHT22;11925;48.122;11.560;2022-09-23T12:14:57;14.30;95.80
23497;DHT22;11925;48.122;11.560;2022-09-23T12:20:48;14.30;96.10
23497;DHT22;11925;48.122;11.560;2022-09-23T12:23:33;14.30;96.20
23497;DHT22;11925;48.122;11.560;2022-09-23T12:26:07;14.30;96.70
23497;DHT22;11925;48.122;11.560;2022-09-23T12:28:42;14.30;97.20
23497;DHT22;11925;48.122;11.560;2022-09-23T12:31:12;14.30;97.20
23497;DHT22;11925;48.122;11.560;2022-09-23T12:33:47;14.30;96.60
23497;DHT22;11925;48.122;11.560;2022-09-23T12:36:24;14.30;96.80
23497;DHT22;11925;48.122;11.560;2022-09-23T12:38:59;14.30;96.90
23497;DHT22;11925;48.122;11.560;2022-09-23T12:41:33;14.40;97.00
23497;DHT22;11925;48.122;11.560;2022-09-23T12:44:23;14.30;97.00
23497;DHT22;11925;48.122;11.560;2022-09-23T12:47:29;14.30;97.10
23497;DHT22;11925;48.122;11.560;2022-09-23T12:56:23;14.30;97.40
23497;DHT22;11925;48.122;11.560;2022-09-23T12:59:16;14.40;97.10
23497;DHT22;11925;48.122;11.560;2022-09-23T13:01:47;14.40;96.90
23497;DHT22;11925;48.122;11.560;2022-09-23T13:04:31;14.40;97.00
23497;DHT22;11925;48.122;11.560;2022-09-23T13:07:22;14.40;96.90
23497;DHT22;11925;48.122;11.560;2022-09-23T13:09:57;14.40;97.00
23497;DHT22;11925;48.122;11.560;2022-09-23T13:12:33;14.40;97.40
23497;DHT22;11925;48.122;11.560;2022-09-23T13:15:09;14.40;97.40
23497;DHT22;11925;48.122;11.560;2022-09-23T13:17:41;14.40;97.50
23497;DHT22;11925;48.122;11.560;2022-09-23T13:20:31;14.40;97.00
23497;DHT22;11925;48.122;11.560;2022-09-23T13:23:18;14.40;97.10
23497;DHT22;11925;48.122;11.560;2022-09-23T13:25:47;14.40;97.10
23497;DHT22;11925;48.122;11.560;2022-09-23T13:28:27;14.40;97.30
23497;DHT22;11925;48.122;11.560;2022-09-23T13:30:58;14.40;97.40
23497;DHT22;11925;48.122;11.560;2022-09-23T13:33:35;14.40;97.40
23497;DHT22;11925;48.122;11.560;2022-09-23T13:36:11;14.40;97.50
23497;DHT22;11925;48.122;11.560;2022-09-23T13:38:40;14.40;97.40
23497;DHT22;11925;48.122;11.560;2022-09-23T13:41:12;14.40;97.90
23497;DHT22;11925;48.122;11.560;2022-09-23T13:43:44;14.40;97.90
23497;DHT22;11925;48.122;11.560;2022-09-23T13:46:18;14.40;98.20
23497;DHT22;11925;48.122;11.560;2022-09-23T13:48:50;14.40;98.30
23497;DHT22;11925;48.122;11.560;2022-09-23T13:51:22;14.40;98.40
23497;DHT22;11925;48.122;11.560;2022-09-23T13:56:23;14.40;98.10
23497;DHT22;11925;48.122;11.560;2022-09-23T13:58:51;14.40;98.20
23497;DHT22;11925;48.122;11.560;2022-09-23T14:01:29;14.40;98.30
23497;DHT22;11925;48.122;11.560;2022-09-23T14:03:58;14.40;98.30
23497;DHT22;11925;48.122;11.560;2022-09-23T14:06:28;14.40;98.40
23497;DHT22;11925;48.122;11.560;2022-09-23T14:09:00;14.40;98.20
23497;DHT22;11925;48.122;11.560;2022-09-23T14:11:29;14.50;98.30
23497;DHT22;11925;48.122;11.560;2022-09-23T14:14:00;14.40;98.30
23497;DHT22;11925;48.122;11.560;2022-09-23T14:16:38;14.40;98.40
23497;DHT22;11925;48.122;11.560;2022-09-23T14:19:12;14.50;98.20
23497;DHT22;11925;48.122;11.560;2022-09-23T14:21:47;14.50;98.40
23497;DHT22;11925;48.122;11.560;2022-09-23T14:24:18;14.50;98.80
23497;DHT22;11925;48.122;11.560;2022-09-23T14:26:48;14.40;98.50
23497;DHT22;11925;48.122;11.560;2022-09-23T14:29:18;14.50;98.50
23497;DHT22;11925;48.122;11.560;2022-09-23T14:31:52;14.50;98.60
23497;DHT22;11925;48.122;11.560;2022-09-23T14:34:40;14.50;98.60
23497;DHT22;11925;48.122;11.560;2022-09-23T14:37:25;14.50;98.60
23497;DHT22;11925;48.122;11.560;2022-09-23T14:40:15;14.40;98.70
23497;DHT22;11925;48.122;11.560;2022-09-23T14:42:44;14.50;98.80
23497;DHT22;11925;48.122;11.560;2022-09-23T14:45:16;14.50;98.80
23497;DHT22;11925;48.122;11.560;2022-09-23T14:47:49;14.40;99.20
23497;DHT22;11925;48.122;11.560;2022-09-23T14:50:20;14.40;99.40
